Time;durP1;ratioP1;P1;durP2;ratioP2;P2;SDS_P1;SDS_P2;PMS_P1;PMS_P2;Temp;Humidity;BMP_temperature;BMP_pressure;BME280_temperature;BME280_humidity;BME280_pressure;Samples;Min_cycle;Max_cycle;Signal;HPM_P1;HPM_P2
2021/10/27 00:01:32;;;;;;;23.63;10.68;;;;;;;;;;4949257;28;20042;-66
2021/10/27 00:03:57;;;;;;;17.85;9.95;;;;;;;;;;4948369;28;20031;-66
2021/10/27 00:06:23;;;;;;;20.95;10.82;;;;;;;;;;4937656;28;20040;-65
2021/10/27 00:08:49;;;;;;;22.40;9.90;;;;;;;;;;4946975;28;20030;-66
2021/10/27 00:11:15;;;;;;;21.65;10.55;;;;;;;;;;4950133;28;20031;-66
2021/10/27 00:13:41;;;;;;;19.67;10.35;;;;;;;;;;4950313;28;20030;-66
2021/10/27 00:16:06;;;;;;;22.55;10.90;;;;;;;;;;4949945;28;20074;-65
2021/10/27 00:18:31;;;;;;;22.13;10.60;;;;;;;;;;4949362;29;20117;-65
2021/10/27 00:20:57;;;;;;;21.65;10.88;;;;;;;;;;4938996;28;20502;-65
2021/10/27 00:23:22;;;;;;;19.33;10.77;;;;;;;;;;4943228;29;20023;-65
2021/10/27 00:25:47;;;;;;;21.60;10.57;;;;;;;;;;4949624;28;20378;-65
2021/10/27 00:28:12;;;;;;;20.95;11.43;;;;;;;;;;4942392;28;20035;-65
2021/10/27 00:30:38;;;;;;;17.33;10.88;;;;;;;;;;4938457;28;20067;-65
2021/10/27 00:33:03;;;;;;;17.75;10.48;;;;;;;;;;4962651;28;20162;-65
2021/10/27 00:35:28;;;;;;;20.35;10.88;;;;;;;;;;4937876;28;20597;-65
2021/10/27 00:37:53;;;;;;;17.80;10.77;;;;;;;;;;4939707;28;20031;-65
2021/10/27 00:40:19;;;;;;;21.60;10.57;;;;;;;;;;4939743;28;20042;-65
2021/10/27 00:42:44;;;;;;;21.88;10.43;;;;;;;;;;4946706;28;20027;-65
2021/10/27 00:45:09;;;;;;;27.10;11.02;;;;;;;;;;4948771;28;20031;-65
2021/10/27 00:47:34;;;;;;;20.60;9.82;;;;;;;;;;4949137;28;20234;-65
2021/10/27 00:49:59;;;;;;;19.75;10.57;;;;;;;;;;4945856;28;20023;-65
2021/10/27 00:52:25;;;;;;;18.48;10.15;;;;;;;;;;4949638;28;20042;-65
2021/10/27 00:54:50;;;;;;;17.60;9.95;;;;;;;;;;4947774;28;20019;-65
2021/10/27 00:57:16;;;;;;;24.98;9.63;;;;;;;;;;4949353;28;20257;-65
2021/10/27 00:59:42;;;;;;;29.10;10.73;;;;;;;;;;4949143;29;20019;-65
2021/10/27 01:02:08;;;;;;;17.75;9.25;;;;;;;;;;4948907;28;20035;-65
2021/10/27 01:04:34;;;;;;;15.23;8.48;;;;;;;;;;4944722;29;20417;-65
2021/10/27 01:06:59;;;;;;;19.45;9.40;;;;;;;;;;4944115;28;20036;-66
2021/10/27 01:09:25;;;;;;;19.83;9.75;;;;;;;;;;4938627;29;20746;-65
2021/10/27 01:11:50;;;;;;;19.75;10.02;;;;;;;;;;4949033;28;20050;-65
2021/10/27 01:14:16;;;;;;;22.33;9.95;;;;;;;;;;4941476;28;20058;-65
2021/10/27 01:16:42;;;;;;;20.45;11.18;;;;;;;;;;4946990;28;20034;-65
2021/10/27 01:19:07;;;;;;;24.70;11.15;;;;;;;;;;4940194;28;20038;-65
2021/10/27 01:21:32;;;;;;;20.33;11.25;;;;;;;;;;4943056;28;20028;-65
2021/10/27 01:23:58;;;;;;;18.80;10.98;;;;;;;;;;4944683;29;20031;-65
2021/10/27 01:26:23;;;;;;;25.20;11.30;;;;;;;;;;4938147;28;20167;-65
2021/10/27 01:28:48;;;;;;;18.27;10.68;;;;;;;;;;4943935;29;20050;-65
2021/10/27 01:31:13;;;;;;;21.13;11.02;;;;;;;;;;4947545;28;20043;-65
2021/10/27 01:33:39;;;;;;;21.77;11.40;;;;;;;;;;4942610;28;20039;-65
2021/10/27 01:36:04;;;;;;;25.23;10.98;;;;;;;;;;4948672;28;20043;-65
2021/10/27 01:38:30;;;;;;;22.73;12.55;;;;;;;;;;4935317;28;20031;-66
2021/10/27 01:40:55;;;;;;;18.98;8.95;;;;;;;;;;4943068;28;20095;-65
2021/10/27 01:43:21;;;;;;;21.38;10.30;;;;;;;;;;4948346;28;20070;-65
2021/10/27 01:45:46;;;;;;;23.23;11.82;;;;;;;;;;4947295;28;20047;-65
2021/10/27 01:48:11;;;;;;;23.38;11.73;;;;;;;;;;4938459;28;20066;-65
2021/10/27 01:50:36;;;;;;;18.42;10.32;;;;;;;;;;4946829;28;20046;-65
2021/10/27 01:53:02;;;;;;;20.15;11.02;;;;;;;;;;4936306;28;20020;-65
2021/10/27 01:55:27;;;;;;;24.67;11.40;;;;;;;;;;4946815;28;20031;-65
2021/10/27 01:57:53;;;;;;;24.77;11.15;;;;;;;;;;4947248;28;20035;-65
2021/10/27 02:00:18;;;;;;;19.90;10.93;;;;;;;;;;4944413;28;20603;-65
2021/10/27 02:02:43;;;;;;;16.55;9.60;;;;;;;;;;4937252;28;20019;-65
2021/10/27 02:05:08;;;;;;;24.83;12.45;;;;;;;;;;4948214;28;20035;-65
2021/10/27 02:07:34;;;;;;;22.40;10.80;;;;;;;;;;4939454;28;20024;-65
2021/10/27 02:09:59;;;;;;;24.40;11.43;;;;;;;;;;4942305;28;20028;-65
2021/10/27 02:12:24;;;;;;;25.40;12.23;;;;;;;;;;4947793;28;20035;-65
2021/10/27 02:14:50;;;;;;;20.80;12.10;;;;;;;;;;4946956;29;20126;-65
2021/10/27 02:17:15;;;;;;;25.92;12.43;;;;;;;;;;4941538;28;20049;-65
2021/10/27 02:19:40;;;;;;;22.83;11.80;;;;;;;;;;4943968;28;20035;-65
2021/10/27 02:22:05;;;;;;;18.90;12.23;;;;;;;;;;4944958;28;20486;-64
2021/10/27 02:24:30;;;;;;;19.75;11.90;;;;;;;;;;4948104;28;20023;-65
2021/10/27 02:26:56;;;;;;;29.45;12.90;;;;;;;;;;4939711;28;20028;-65
2021/10/27 02:29:21;;;;;;;24.48;11.48;;;;;;;;;;4944474;28;20030;-65
2021/10/27 02:31:47;;;;;;;24.17;12.70;;;;;;;;;;4947331;28;20071;-66
2021/10/27 02:34:12;;;;;;;17.45;10.63;;;;;;;;;;4946930;28;20330;-65
2021/10/27 02:36:37;;;;;;;22.80;11.80;;;;;;;;;;4960544;28;20035;-65
2021/10/27 02:39:03;;;;;;;31.48;13.23;;;;;;;;;;4947828;28;20027;-65
2021/10/27 02:41:28;;;;;;;27.15;13.85;;;;;;;;;;4947317;28;20039;-64
2021/10/27 02:43:53;;;;;;;26.27;14.80;;;;;;;;;;4950582;28;20136;-64
2021/10/27 02:46:18;;;;;;;28.75;14.68;;;;;;;;;;4936602;28;20035;-65
2021/10/27 02:48:44;;;;;;;28.48;13.90;;;;;;;;;;4942208;28;20284;-65
2021/10/27 02:51:09;;;;;;;25.10;13.48;;;;;;;;;;4942262;28;20027;-66
2021/10/27 02:53:34;;;;;;;30.40;13.63;;;;;;;;;;4946066;28;20556;-64
2021/10/27 02:56:00;;;;;;;27.13;13.65;;;;;;;;;;4949646;28;20054;-66
2021/10/27 02:58:25;;;;;;;27.33;12.23;;;;;;;;;;4944710;28;20101;-64
2021/10/27 03:00:51;;;;;;;23.98;12.05;;;;;;;;;;4942531;28;20109;-66
2021/10/27 03:03:16;;;;;;;24.92;13.40;;;;;;;;;;4947068;28;20067;-66
2021/10/27 03:05:41;;;;;;;27.58;13.70;;;;;;;;;;4935665;28;20127;-64
2021/10/27 03:08:07;;;;;;;28.65;13.65;;;;;;;;;;4945523;28;20513;-65
2021/10/27 03:10:32;;;;;;;23.23;11.80;;;;;;;;;;4943603;28;20437;-64
2021/10/27 03:12:57;;;;;;;27.30;12.48;;;;;;;;;;4953707;28;20078;-64
2021/10/27 03:15:22;;;;;;;23.42;12.80;;;;;;;;;;4944439;28;21889;-65
2021/10/27 03:17:48;;;;;;;23.60;12.38;;;;;;;;;;4944859;28;20027;-64
2021/10/27 03:20:13;;;;;;;22.27;11.65;;;;;;;;;;4950726;28;20026;-65
2021/10/27 03:22:39;;;;;;;23.70;12.55;;;;;;;;;;4947283;28;20111;-64
2021/10/27 03:25:04;;;;;;;25.40;11.98;;;;;;;;;;4950160;28;20090;-64
2021/10/27 03:27:30;;;;;;;21.00;11.57;;;;;;;;;;4948533;28;20039;-65
2021/10/27 03:29:55;;;;;;;22.90;12.43;;;;;;;;;;4939570;28;20040;-65
2021/10/27 03:32:20;;;;;;;22.75;11.68;;;;;;;;;;4944081;28;20031;-66
2021/10/27 03:34:48;;;;;;;23.75;12.70;;;;;;;;;;4945197;28;20054;-65
2021/10/27 03:37:14;;;;;;;29.88;12.35;;;;;;;;;;4949021;28;20039;-65
2021/10/27 03:39:39;;;;;;;20.48;12.15;;;;;;;;;;4959818;28;20500;-66
2021/10/27 03:42:04;;;;;;;29.48;13.73;;;;;;;;;;4949810;28;20075;-65
2021/10/27 03:44:30;;;;;;;27.88;12.88;;;;;;;;;;4947512;29;20067;-66
2021/10/27 03:46:55;;;;;;;23.05;12.35;;;;;;;;;;4957300;28;20043;-66
2021/10/27 03:49:20;;;;;;;21.33;12.70;;;;;;;;;;4943407;28;20379;-66
2021/10/27 03:51:46;;;;;;;22.48;12.45;;;;;;;;;;4947505;28;20059;-67
2021/10/27 03:54:12;;;;;;;25.70;12.50;;;;;;;;;;4951016;28;20023;-66
2021/10/27 03:56:37;;;;;;;24.52;12.75;;;;;;;;;;4950038;28;20039;-67
2021/10/27 03:59:02;;;;;;;27.08;12.95;;;;;;;;;;4950422;28;22088;-67
2021/10/27 04:01:28;;;;;;;24.33;12.38;;;;;;;;;;4950405;28;20597;-66
2021/10/27 04:03:53;;;;;;;26.17;13.07;;;;;;;;;;4949768;28;20548;-66
2021/10/27 04:06:18;;;;;;;28.40;13.55;;;;;;;;;;4944387;28;20043;-66
2021/10/27 04:08:43;;;;;;;25.08;12.80;;;;;;;;;;4943608;28;20070;-66
2021/10/27 04:11:09;;;;;;;23.27;12.50;;;;;;;;;;4949893;28;20043;-65
2021/10/27 04:13:35;;;;;;;29.88;13.55;;;;;;;;;;4940555;28;20110;-65
2021/10/27 04:16:00;;;;;;;28.73;13.80;;;;;;;;;;4947130;28;20134;-67
2021/10/27 04:18:25;;;;;;;23.45;12.52;;;;;;;;;;4941840;28;20126;-65
2021/10/27 04:20:51;;;;;;;21.75;12.57;;;;;;;;;;4939388;28;20040;-65
2021/10/27 04:23:16;;;;;;;30.58;14.40;;;;;;;;;;4945040;28;20085;-65
2021/10/27 04:25:41;;;;;;;23.55;12.57;;;;;;;;;;4940469;28;20478;-65
2021/10/27 04:28:06;;;;;;;20.70;12.48;;;;;;;;;;4948510;28;20597;-65
2021/10/27 04:30:32;;;;;;;22.42;12.15;;;;;;;;;;4950121;28;20540;-65
2021/10/27 04:32:57;;;;;;;27.02;11.98;;;;;;;;;;4945542;28;20478;-65
2021/10/27 04:35:24;;;;;;;21.70;12.50;;;;;;;;;;4944531;28;20055;-65
2021/10/27 04:37:50;;;;;;;24.40;12.65;;;;;;;;;;4938090;29;20517;-66
2021/10/27 04:40:16;;;;;;;27.08;13.52;;;;;;;;;;4947916;28;20034;-65
2021/10/27 04:42:41;;;;;;;21.92;11.23;;;;;;;;;;4946397;28;20054;-67
2021/10/27 04:45:06;;;;;;;23.60;12.55;;;;;;;;;;4947174;28;20405;-66
2021/10/27 04:47:32;;;;;;;24.05;12.75;;;;;;;;;;4943083;28;20041;-66
2021/10/27 04:49:57;;;;;;;24.38;12.40;;;;;;;;;;4943889;29;20037;-67
2021/10/27 04:52:23;;;;;;;20.92;12.18;;;;;;;;;;4944533;28;20482;-67
2021/10/27 04:54:48;;;;;;;26.90;14.07;;;;;;;;;;4939363;28;20027;-66
2021/10/27 04:57:13;;;;;;;19.10;11.75;;;;;;;;;;4940541;28;20047;-66
2021/10/27 04:59:42;;;;;;;23.42;12.50;;;;;;;;;;4937899;28;20067;-66
2021/10/27 05:02:08;;;;;;;26.02;13.05;;;;;;;;;;4952206;28;20461;-66
2021/10/27 05:04:33;;;;;;;25.90;13.75;;;;;;;;;;4945723;28;20026;-66
2021/10/27 05:06:58;;;;;;;23.45;13.88;;;;;;;;;;4944982;28;20070;-66
2021/10/27 05:09:24;;;;;;;27.23;14.38;;;;;;;;;;4946015;28;20027;-66
2021/10/27 05:11:49;;;;;;;28.52;14.73;;;;;;;;;;4944797;28;20042;-65
2021/10/27 05:14:14;;;;;;;24.70;13.45;;;;;;;;;;4947702;28;20051;-64
2021/10/27 05:16:39;;;;;;;22.45;13.88;;;;;;;;;;4948929;28;20035;-67
2021/10/27 05:19:05;;;;;;;20.25;12.43;;;;;;;;;;4947198;29;20666;-67
2021/10/27 05:21:30;;;;;;;22.33;13.40;;;;;;;;;;4940533;28;20039;-67
2021/10/27 05:23:55;;;;;;;22.92;13.50;;;;;;;;;;4949466;28;20026;-66
2021/10/27 05:26:23;;;;;;;23.45;13.43;;;;;;;;;;4946295;28;20605;-67
2021/10/27 05:28:48;;;;;;;27.08;13.32;;;;;;;;;;4937344;28;20036;-66
2021/10/27 05:31:13;;;;;;;28.15;13.13;;;;;;;;;;4944155;28;20061;-67
2021/10/27 05:33:38;;;;;;;25.77;13.45;;;;;;;;;;4940396;29;20078;-67
2021/10/27 05:36:04;;;;;;;22.92;12.95;;;;;;;;;;4949003;28;20042;-64
2021/10/27 05:38:29;;;;;;;22.60;13.57;;;;;;;;;;4944604;28;20386;-66
2021/10/27 05:40:54;;;;;;;21.85;13.48;;;;;;;;;;4947323;28;20066;-65
2021/10/27 05:43:20;;;;;;;21.95;13.23;;;;;;;;;;4942042;29;20031;-69
2021/10/27 05:45:47;;;;;;;23.90;13.30;;;;;;;;;;4941977;28;20042;-65
2021/10/27 05:48:13;;;;;;;24.20;12.25;;;;;;;;;;4945988;28;20042;-65
2021/10/27 05:50:42;;;;;;;21.77;12.90;;;;;;;;;;4948222;28;20039;-65
2021/10/27 05:55:51;;;;;;;25.02;14.05;;;;;;;;;;4947027;28;20074;-65
2021/10/27 05:58:16;;;;;;;28.67;14.63;;;;;;;;;;4944388;28;20027;-65
2021/10/27 06:00:42;;;;;;;26.42;14.48;;;;;;;;;;4941185;28;20153;-66
2021/10/27 06:03:07;;;;;;;23.92;14.27;;;;;;;;;;4943624;28;20078;-65
2021/10/27 06:05:32;;;;;;;32.97;15.45;;;;;;;;;;4940860;28;20203;-67
2021/10/27 06:07:58;;;;;;;29.02;15.40;;;;;;;;;;4945918;28;20031;-65
2021/10/27 06:10:24;;;;;;;29.88;15.48;;;;;;;;;;4944237;28;20054;-67
2021/10/27 06:12:51;;;;;;;29.73;15.93;;;;;;;;;;4947486;28;20023;-67
2021/10/27 06:15:18;;;;;;;31.23;14.80;;;;;;;;;;4945996;28;20057;-65
2021/10/27 06:17:43;;;;;;;28.00;15.10;;;;;;;;;;4946255;29;20031;-65
2021/10/27 06:20:09;;;;;;;29.38;15.68;;;;;;;;;;4946034;28;20024;-66
2021/10/27 06:22:34;;;;;;;32.17;16.55;;;;;;;;;;4943081;28;20034;-66
2021/10/27 06:25:00;;;;;;;28.98;14.93;;;;;;;;;;4937128;28;20031;-65
2021/10/27 06:27:25;;;;;;;29.17;15.05;;;;;;;;;;4938661;28;20086;-65
2021/10/27 06:29:56;;;;;;;28.17;14.07;;;;;;;;;;4945743;28;20629;-65
2021/10/27 06:35:11;;;;;;;24.38;13.50;;;;;;;;;;4938291;29;19945;-65
2021/10/27 06:48:19;;;;;;;29.65;17.10;;;;;;;;;;4937196;29;20090;-65
2021/10/27 06:50:45;;;;;;;28.60;15.13;;;;;;;;;;4943470;28;20027;-65
2021/10/27 06:53:11;;;;;;;26.45;15.50;;;;;;;;;;4941617;28;20099;-65
2021/10/27 06:55:38;;;;;;;27.73;15.07;;;;;;;;;;4945655;28;20497;-65
2021/10/27 06:58:04;;;;;;;28.10;14.27;;;;;;;;;;4939592;29;20070;-67
2021/10/27 07:00:43;;;;;;;28.55;14.85;;;;;;;;;;4945566;28;20059;-64
2021/10/27 07:06:11;;;;;;;23.00;13.10;;;;;;;;;;4936536;28;20070;-65
2021/10/27 07:17:05;;;;;;;23.25;13.43;;;;;;;;;;4927520;28;20139;-65
2021/10/27 07:19:30;;;;;;;26.27;12.10;;;;;;;;;;4940080;28;20565;-65
2021/10/27 07:21:55;;;;;;;25.88;13.60;;;;;;;;;;4942945;28;20098;-65
2021/10/27 07:24:22;;;;;;;23.08;13.38;;;;;;;;;;4946277;28;20157;-65
2021/10/27 07:26:48;;;;;;;28.05;14.25;;;;;;;;;;4940851;28;20040;-65
2021/10/27 07:29:18;;;;;;;25.08;13.45;;;;;;;;;;4941019;28;20043;-67
2021/10/27 07:31:43;;;;;;;26.45;13.85;;;;;;;;;;4944552;28;20039;-66
2021/10/27 07:34:12;;;;;;;25.13;12.93;;;;;;;;;;4943646;28;20031;-65
2021/10/27 07:41:49;;;;;;;18.70;11.27;;;;;;;;;;4940174;28;20914;-68
2021/10/27 07:44:16;;;;;;;20.25;12.23;;;;;;;;;;4946921;28;20023;-64
2021/10/27 07:46:45;;;;;;;19.83;11.30;;;;;;;;;;4939692;28;20047;-67
2021/10/27 07:49:10;;;;;;;18.25;11.55;;;;;;;;;;4955621;28;20035;-67
2021/10/27 07:51:35;;;;;;;16.90;10.77;;;;;;;;;;4939167;28;20629;-66
2021/10/27 07:54:01;;;;;;;16.60;9.90;;;;;;;;;;4942155;28;20853;-66
2021/10/27 07:56:29;;;;;;;23.10;10.68;;;;;;;;;;4940710;28;20035;-66
2021/10/27 07:58:55;;;;;;;17.02;10.23;;;;;;;;;;4941873;28;20903;-67
2021/10/27 08:01:20;;;;;;;20.92;10.23;;;;;;;;;;4946697;28;20126;-66
2021/10/27 08:03:46;;;;;;;17.00;11.07;;;;;;;;;;4944124;28;20035;-66
2021/10/27 08:06:11;;;;;;;21.75;11.40;;;;;;;;;;4942621;28;20039;-67
2021/10/27 08:08:36;;;;;;;19.38;10.50;;;;;;;;;;4947893;28;20065;-66
2021/10/27 08:11:01;;;;;;;17.23;10.43;;;;;;;;;;4947988;28;20039;-66
2021/10/27 08:13:27;;;;;;;21.20;10.73;;;;;;;;;;4948232;28;20232;-66
2021/10/27 08:15:52;;;;;;;16.08;8.93;;;;;;;;;;4942570;28;20110;-66
2021/10/27 08:18:17;;;;;;;17.77;9.65;;;;;;;;;;4943065;29;20043;-66
2021/10/27 08:20:43;;;;;;;16.55;9.50;;;;;;;;;;4941419;28;20046;-66
2021/10/27 08:23:10;;;;;;;19.05;9.60;;;;;;;;;;4948626;28;20081;-65
2021/10/27 08:25:39;;;;;;;20.52;9.15;;;;;;;;;;4946445;28;20043;-64
2021/10/27 08:28:07;;;;;;;19.35;11.00;;;;;;;;;;4938085;29;20078;-64
2021/10/27 08:33:41;;;;;;;16.15;10.30;;;;;;;;;;4922360;29;20054;-64
2021/10/27 08:36:07;;;;;;;19.60;9.98;;;;;;;;;;4940926;28;20047;-64
2021/10/27 08:38:32;;;;;;;15.85;9.70;;;;;;;;;;4943229;28;20085;-65
2021/10/27 08:40:59;;;;;;;15.85;8.82;;;;;;;;;;4948073;28;20050;-64
2021/10/27 08:43:25;;;;;;;14.02;8.40;;;;;;;;;;4942380;28;20410;-65
2021/10/27 08:45:50;;;;;;;16.50;8.75;;;;;;;;;;4942763;28;20046;-65
2021/10/27 08:48:15;;;;;;;12.90;8.18;;;;;;;;;;4941042;28;20039;-64
2021/10/27 08:50:41;;;;;;;13.55;8.20;;;;;;;;;;4943782;28;20038;-66
2021/10/27 08:53:06;;;;;;;17.85;8.50;;;;;;;;;;4940762;28;20074;-65
2021/10/27 08:55:32;;;;;;;12.85;7.55;;;;;;;;;;4947834;28;20035;-65
2021/10/27 08:57:58;;;;;;;12.88;7.50;;;;;;;;;;4948391;28;20422;-65
2021/10/27 09:00:31;;;;;;;14.15;7.97;;;;;;;;;;4944625;28;20044;-65
2021/10/27 09:41:24;;;;;;;11.25;7.25;;;;;;;;;;4938396;28;20418;-65
2021/10/27 09:44:03;;;;;;;10.02;6.25;;;;;;;;;;4940969;29;20058;-65
2021/10/27 09:46:56;;;;;;;12.95;6.30;;;;;;;;;;4946830;28;20031;-66
2021/10/27 10:06:01;;;;;;;8.80;4.75;;;;;;;;;;4943219;28;20134;-67
2021/10/27 10:08:26;;;;;;;10.77;6.18;;;;;;;;;;4945857;29;20122;-67
2021/10/27 10:10:52;;;;;;;11.02;5.93;;;;;;;;;;4946987;28;20074;-67
2021/10/27 10:13:19;;;;;;;9.82;5.82;;;;;;;;;;4944598;28;20114;-67
2021/10/27 10:15:44;;;;;;;10.68;5.43;;;;;;;;;;4943258;28;20056;-67
2021/10/27 10:18:10;;;;;;;10.55;5.70;;;;;;;;;;4947997;28;20403;-66
2021/10/27 10:20:36;;;;;;;9.52;5.45;;;;;;;;;;4947223;28;20716;-67
2021/10/27 10:23:17;;;;;;;7.95;5.50;;;;;;;;;;4943230;29;20110;-67
2021/10/27 10:25:47;;;;;;;10.75;6.10;;;;;;;;;;4945861;28;20039;-67
2021/10/27 10:28:12;;;;;;;;;;;;;;;;;;4948028;28;20122;-65
2021/10/27 10:30:41;;;;;;;11.48;5.78;;;;;;;;;;4941106;28;20009;-65
2021/10/27 10:33:07;;;;;;;9.23;5.72;;;;;;;;;;4943150;29;20034;-65
2021/10/27 10:35:46;;;;;;;10.05;6.30;;;;;;;;;;4936244;28;20042;-67
2021/10/27 10:58:10;;;;;;;9.82;5.70;;;;;;;;;;4939036;28;20106;-67
2021/10/27 11:01:23;;;;;;;12.05;5.80;;;;;;;;;;4946996;28;20050;-67
2021/10/27 11:03:36;;;;;;;15.50;5.70;;;;;;;;;;4933882;29;20501;-67
2021/10/27 11:23:17;;;;;;;10.23;5.05;;;;;;;;;;4935155;29;20125;-66
2021/10/27 11:37:18;;;;;;;14.82;5.38;;;;;;;;;;4942951;29;20462;-67
2021/10/27 11:42:36;;;;;;;9.55;5.15;;;;;;;;;;4890748;29;20037;-68
2021/10/27 11:45:26;;;;;;;9.57;4.78;;;;;;;;;;4938978;28;20054;-68
2021/10/27 11:47:55;;;;;;;9.85;4.50;;;;;;;;;;4945042;28;20501;-67
2021/10/27 11:50:21;;;;;;;9.20;4.88;;;;;;;;;;4942549;28;20186;-68
2021/10/27 11:52:48;;;;;;;9.57;5.00;;;;;;;;;;4947263;28;20031;-65
2021/10/27 11:55:14;;;;;;;11.32;4.75;;;;;;;;;;4948179;28;20118;-67
2021/10/27 11:57:39;;;;;;;9.57;4.60;;;;;;;;;;4947230;28;20410;-67
2021/10/27 12:00:07;;;;;;;7.97;4.18;;;;;;;;;;4948629;28;20035;-65
2021/10/27 12:02:48;;;;;;;10.15;4.35;;;;;;;;;;4938117;29;20020;-65
2021/10/27 12:05:28;;;;;;;7.75;3.67;;;;;;;;;;4940979;28;20031;-66
2021/10/27 12:11:09;;;;;;;7.95;3.75;;;;;;;;;;4943637;28;20042;-66
2021/10/27 12:13:42;;;;;;;7.80;3.63;;;;;;;;;;4943598;28;20034;-66
2021/10/27 12:19:05;;;;;;;8.25;3.60;;;;;;;;;;4936634;28;20442;-66
2021/10/27 12:21:30;;;;;;;9.27;3.30;;;;;;;;;;4955070;28;20134;-66
2021/10/27 12:23:56;;;;;;;8.65;3.30;;;;;;;;;;4944201;28;20110;-66
2021/10/27 12:26:23;;;;;;;8.77;3.63;;;;;;;;;;4944557;28;20088;-66
2021/10/27 12:28:58;;;;;;;8.45;3.78;;;;;;;;;;4938020;29;20031;-66
2021/10/27 12:31:24;;;;;;;8.20;3.60;;;;;;;;;;4937022;28;20039;-66
2021/10/27 12:33:49;;;;;;;8.15;3.90;;;;;;;;;;4947501;28;20266;-66
2021/10/27 12:36:18;;;;;;;9.52;4.03;;;;;;;;;;4949761;28;20035;-66
2021/10/27 12:39:03;;;;;;;8.77;3.58;;;;;;;;;;4947198;29;20019;-66
2021/10/27 12:41:28;;;;;;;8.48;3.60;;;;;;;;;;4946945;28;20039;-66
2021/10/27 12:43:53;;;;;;;5.47;3.70;;;;;;;;;;4945500;28;20099;-66
2021/10/27 12:46:21;;;;;;;9.55;4.10;;;;;;;;;;4948062;28;20322;-66
2021/10/27 12:48:47;;;;;;;8.90;3.95;;;;;;;;;;4948036;28;20066;-66
2021/10/27 12:51:13;;;;;;;12.02;4.10;;;;;;;;;;4950219;28;20122;-66
2021/10/27 12:53:42;;;;;;;13.95;4.72;;;;;;;;;;4950087;28;20030;-65
2021/10/27 12:56:12;;;;;;;8.83;4.03;;;;;;;;;;4944385;28;20371;-66
2021/10/27 12:58:43;;;;;;;;;;;;;;;;;;4940532;28;20035;-65
2021/10/27 13:01:22;;;;;;;9.15;4.18;;;;;;;;;;4945393;28;19914;-66
2021/10/27 13:11:37;;;;;;;8.38;3.90;;;;;;;;;;4944594;28;20035;-65
2021/10/27 13:29:49;;;;;;;7.07;4.03;;;;;;;;;;4945532;29;20039;-67
2021/10/27 13:32:17;;;;;;;8.75;3.80;;;;;;;;;;4946325;28;20078;-66
2021/10/27 13:34:42;;;;;;;8.30;3.85;;;;;;;;;;4947037;29;20038;-66
2021/10/27 13:37:08;;;;;;;7.95;3.47;;;;;;;;;;4944272;28;20032;-67
2021/10/27 13:39:34;;;;;;;9.30;3.75;;;;;;;;;;4948792;28;20023;-67
2021/10/27 13:42:03;;;;;;;8.20;3.83;;;;;;;;;;4937087;28;20093;-66
2021/10/27 13:44:33;;;;;;;14.07;4.07;;;;;;;;;;4945730;28;20027;-66
2021/10/27 13:47:09;;;;;;;;;;;;;;;;;;4942617;28;20051;-66
2021/10/27 14:06:05;;;;;;;10.88;4.43;;;;;;;;;;4947774;28;20094;-65
2021/10/27 14:08:45;;;;;;;6.15;3.50;;;;;;;;;;4944339;28;20039;-65
2021/10/27 15:19:40;;;;;;;6.93;3.70;;;;;;;;;;4937968;28;20062;-65
2021/10/27 15:22:21;;;;;;;8.27;3.83;;;;;;;;;;4937263;29;20059;-65
2021/10/27 15:28:12;;;;;;;9.50;3.90;;;;;;;;;;4946872;28;20065;-65
2021/10/27 15:51:08;;;;;;;8.30;4.07;;;;;;;;;;4932724;28;20047;-66
2021/10/27 15:53:36;;;;;;;8.23;4.55;;;;;;;;;;4941560;29;20027;-66
2021/10/27 15:56:02;;;;;;;10.35;4.05;;;;;;;;;;4933199;28;20054;-66
2021/10/27 15:58:27;;;;;;;9.60;4.30;;;;;;;;;;4940656;29;20027;-66
2021/10/27 16:00:52;;;;;;;11.05;4.22;;;;;;;;;;4939838;28;20119;-66
2021/10/27 16:03:17;;;;;;;8.35;4.93;;;;;;;;;;4943742;29;20146;-66
2021/10/27 16:05:45;;;;;;;12.82;4.80;;;;;;;;;;4937905;28;20545;-66
2021/10/27 16:08:14;;;;;;;8.82;5.15;;;;;;;;;;4942093;28;20122;-65
2021/10/27 16:10:40;;;;;;;11.23;4.82;;;;;;;;;;4942486;28;20744;-66
2021/10/27 16:13:06;;;;;;;9.40;4.75;;;;;;;;;;4944028;28;20031;-65
2021/10/27 16:15:55;;;;;;;12.10;5.18;;;;;;;;;;4944004;28;20055;-65
2021/10/27 16:18:20;;;;;;;10.38;5.82;;;;;;;;;;4942553;28;20055;-65
2021/10/27 16:20:45;;;;;;;8.27;5.30;;;;;;;;;;4947737;28;20073;-64
2021/10/27 16:23:11;;;;;;;12.57;6.20;;;;;;;;;;4943485;28;20067;-67
2021/10/27 16:25:36;;;;;;;11.55;6.35;;;;;;;;;;4940715;28;20722;-66
2021/10/27 16:28:01;;;;;;;11.95;6.45;;;;;;;;;;4936073;28;20115;-66
2021/10/27 16:30:28;;;;;;;12.40;6.53;;;;;;;;;;4953827;28;20051;-66
2021/10/27 16:32:53;;;;;;;14.10;6.93;;;;;;;;;;4945779;28;20058;-64
2021/10/27 16:35:18;;;;;;;17.00;8.43;;;;;;;;;;4942948;28;20058;-66
2021/10/27 16:37:43;;;;;;;10.88;7.10;;;;;;;;;;4940235;29;20042;-66
2021/10/27 16:40:09;;;;;;;13.57;7.28;;;;;;;;;;4943184;28;20055;-66
2021/10/27 16:42:36;;;;;;;13.02;7.88;;;;;;;;;;4940028;28;20023;-65
2021/10/27 16:45:01;;;;;;;14.68;8.43;;;;;;;;;;4944105;28;20567;-66
2021/10/27 16:47:26;;;;;;;14.38;7.65;;;;;;;;;;4948651;28;20027;-66
2021/10/27 16:49:52;;;;;;;13.32;7.90;;;;;;;;;;4939399;28;20068;-66
2021/10/27 16:52:17;;;;;;;13.30;7.57;;;;;;;;;;4942040;28;20114;-65
2021/10/27 16:54:42;;;;;;;19.42;9.45;;;;;;;;;;4958488;28;20030;-65
2021/10/27 16:57:07;;;;;;;18.00;9.43;;;;;;;;;;4946282;28;20390;-65
2021/10/27 16:59:33;;;;;;;16.13;8.18;;;;;;;;;;4948379;28;20759;-66
2021/10/27 17:01:58;;;;;;;18.42;8.43;;;;;;;;;;4939512;28;20039;-65
2021/10/27 17:04:23;;;;;;;13.15;6.82;;;;;;;;;;4949137;28;20572;-65
2021/10/27 17:06:49;;;;;;;15.55;7.47;;;;;;;;;;4946455;28;20031;-65
2021/10/27 17:09:14;;;;;;;17.05;8.07;;;;;;;;;;4940512;28;20039;-66
2021/10/27 17:11:40;;;;;;;15.73;7.75;;;;;;;;;;4942139;28;20560;-65
2021/10/27 17:14:05;;;;;;;14.65;7.63;;;;;;;;;;4939747;28;20052;-65
2021/10/27 17:16:32;;;;;;;13.73;8.10;;;;;;;;;;4935026;28;20044;-66
2021/10/27 17:18:57;;;;;;;14.65;8.38;;;;;;;;;;4948060;29;20528;-65
2021/10/27 17:21:23;;;;;;;14.93;8.80;;;;;;;;;;4945364;28;20127;-67
2021/10/27 17:23:52;;;;;;;19.23;9.77;;;;;;;;;;4949583;28;20158;-65
2021/10/27 17:26:18;;;;;;;16.33;9.13;;;;;;;;;;4940553;28;20043;-65
2021/10/27 17:28:43;;;;;;;17.88;9.70;;;;;;;;;;4945464;28;20037;-65
2021/10/27 17:31:08;;;;;;;17.77;9.95;;;;;;;;;;4944476;28;20099;-67
2021/10/27 17:33:33;;;;;;;18.70;9.35;;;;;;;;;;4947403;28;20390;-65
2021/10/27 17:36:01;;;;;;;19.73;11.30;;;;;;;;;;4944442;28;20118;-65
2021/10/27 17:38:27;;;;;;;19.20;10.30;;;;;;;;;;4942103;28;20409;-65
2021/10/27 17:40:52;;;;;;;17.50;9.60;;;;;;;;;;4948513;28;20039;-66
2021/10/27 17:43:17;;;;;;;18.58;9.55;;;;;;;;;;4948872;28;20063;-66
2021/10/27 17:45:44;;;;;;;19.17;9.88;;;;;;;;;;4948158;28;20114;-66
2021/10/27 17:48:17;;;;;;;17.08;9.27;;;;;;;;;;4948237;28;20453;-66
2021/10/27 17:58:35;;;;;;;18.13;9.10;;;;;;;;;;4940403;28;20051;-65
2021/10/27 18:01:02;;;;;;;19.52;9.75;;;;;;;;;;4947722;28;20035;-65
2021/10/27 18:03:29;;;;;;;19.17;10.48;;;;;;;;;;4942387;28;20108;-66
2021/10/27 18:05:54;;;;;;;17.25;9.52;;;;;;;;;;4941030;28;20378;-65
2021/10/27 18:08:21;;;;;;;16.75;9.18;;;;;;;;;;4947412;28;20263;-66
2021/10/27 18:10:50;;;;;;;16.58;9.57;;;;;;;;;;4941310;28;20050;-66
2021/10/27 18:13:19;;;;;;;19.90;9.90;;;;;;;;;;4945591;28;20345;-65
2021/10/27 18:15:46;;;;;;;18.17;9.45;;;;;;;;;;4944502;28;20280;-65
2021/10/27 18:18:15;;;;;;;14.05;8.90;;;;;;;;;;4931468;28;20471;-65
2021/10/27 18:20:44;;;;;;;17.92;11.88;;;;;;;;;;4943589;28;20512;-64
2021/10/27 18:26:05;;;;;;;18.23;9.77;;;;;;;;;;4944121;28;20031;-66
2021/10/27 18:28:34;;;;;;;20.25;9.45;;;;;;;;;;4942373;28;20490;-66
2021/10/27 18:39:04;;;;;;;17.30;9.82;;;;;;;;;;4942581;28;20041;-65
2021/10/27 18:43:59;;;;;;;18.05;9.77;;;;;;;;;;4945359;28;20893;-66
2021/10/27 18:46:24;;;;;;;17.98;9.45;;;;;;;;;;4943828;28;20126;-66
2021/10/27 18:48:51;;;;;;;18.38;9.52;;;;;;;;;;4940941;28;20063;-66
2021/10/27 18:51:22;;;;;;;16.02;9.32;;;;;;;;;;4943940;28;20035;-65
2021/10/27 19:01:49;;;;;;;18.75;10.10;;;;;;;;;;4944663;28;20046;-66
2021/10/27 19:12:21;;;;;;;18.58;10.20;;;;;;;;;;4933797;28;20093;-65
2021/10/27 19:17:15;;;;;;;18.30;10.75;;;;;;;;;;4944946;28;20035;-65
2021/10/27 19:19:40;;;;;;;18.27;11.48;;;;;;;;;;4935704;28;20023;-66
2021/10/27 19:22:06;;;;;;;18.25;11.07;;;;;;;;;;4939512;28;20047;-66
2021/10/27 19:24:43;;;;;;;21.55;11.73;;;;;;;;;;4939546;28;20218;-65
2021/10/27 19:27:16;;;;;;;19.55;11.75;;;;;;;;;;4938764;28;20126;-65
2021/10/27 19:29:54;;;;;;;19.05;11.73;;;;;;;;;;4939148;28;20035;-65
2021/10/27 20:10:55;;;;;;;23.38;13.68;;;;;;;;;;4949204;28;20034;-65
2021/10/27 20:29:28;;;;;;;27.50;14.32;;;;;;;;;;4948536;29;20061;-65
2021/10/27 20:53:35;;;;;;;31.58;15.50;;;;;;;;;;4948852;28;20567;-64
2021/10/27 20:56:01;;;;;;;28.73;14.77;;;;;;;;;;4947154;28;20035;-64
2021/10/27 20:58:41;;;;;;;29.05;14.60;;;;;;;;;;4946673;28;20430;-65
2021/10/27 21:14:14;;;;;;;31.58;16.67;;;;;;;;;;4941758;28;20050;-65